Airfield :
LOGIN :

Register | Disclaimer

   EN    FR    IT 

 










Legend :    VFR   Marginal VFR   IFR   Intensive IFR   Very Intensive IFR
Visi :
Ceiling :
>= 8 km
>= 3000ft
5 to 8 km
1000 to 3000 ft
1500m to 5 km
500 to 1000 ft
800 to 1500m
200 to 500 ft
< 800m
< 200 ft
Symbols :   Thunderstorms  Fog  Heavy snow  Heavy precipitations  Wind > 20 kt
SIGMETs :     Misc.  Thunderstorms  Icing  Turbulence  Mountain Waves  Volcanic Ashes






- Airport Elevation : 194 ft
- IATA code : IEG


EPZG - Zielona Gora Babimost

CURRENT METAR :
  • 131200Z VRB02KT 4400 -RA BR BKN016 OVC022 04/04 Q1004 RERA

EXPIRED METARs :
  • 131130Z VRB02KT 3800 RA BR BKN016 OVC023 04/04 Q1004
  • 131100Z 26003KT 230V290 4000 RA BR BKN017 OVC026 04/04 Q1004
  • 131030Z 24004KT 4000 RA BR BKN019 OVC026 04/04 Q1004
  • 131000Z 26003KT 230V290 4000 -RA BR OVC026 04/04 Q1003
  • 130900Z 25003KT 8000 OVC025 04/04 Q1004

TAF TAF EPZG
Valid from the 13 at 12:00 until the 13 at 21:00 UTC


131130Z 1312/1321 26004KT 6000 BKN023
TEMPO 1312/1318 4000 RA BR BKN006 OVC023
TEMPO 1318/1321 2500 RASN BR BKN004 OVC013



MET'MAP, your aeronautical weather chart ! - Copyright ORBIFLY December 2007 - Disclaimer

ORBIFLY MET'MAP TEAM :

Programming & Development : Alexandra Zaïnal
Concept & Development : Baudouin d'Aumeries
Co-Development & Prog : Marc-Olivier Méhu
Technical & hardware support : Manuel Goepfert

Contact : metmap@orbifly.com




SOURCES & CREDITS :

   NOAA